Time;durP1;ratioP1;P1;durP2;ratioP2;P2;SDS_P1;SDS_P2;PMS_P1;PMS_P2;Temp;Humidity;BMP_temperature;BMP_pressure;BME280_temperature;BME280_humidity;BME280_pressure;Samples;Min_cycle;Max_cycle;Signal;HPM_P1;HPM_P2
2021/07/24 00:01:34;;;;;;;23.07;21.57;;;;;;;;;;5096440;28;20441;-96
2021/07/24 00:04:03;;;;;;;21.87;20.60;;;;;;;;;;5096705;28;20430;-96
2021/07/24 00:06:30;;;;;;;24.30;22.40;;;;;;;;;;5078341;28;20501;-96
2021/07/24 00:09:03;;;;;;;22.40;21.07;;;;;;;;;;5097110;28;20531;-94
2021/07/24 00:11:30;;;;;;;22.87;21.37;;;;;;;;;;5097457;28;20464;-96
2021/07/24 00:13:58;;;;;;;22.07;20.57;;;;;;;;;;5081147;28;20475;-96
2021/07/24 00:16:25;;;;;;;23.57;21.97;;;;;;;;;;5097809;28;20932;-96
2021/07/24 00:18:53;;;;;;;22.80;21.47;;;;;;;;;;5078878;28;20453;-96
2021/07/24 00:21:22;;;;;;;23.13;21.67;;;;;;;;;;5078387;28;20443;-96
2021/07/24 00:23:49;;;;;;;22.00;20.70;;;;;;;;;;5096229;28;20456;-96
2021/07/24 00:26:17;;;;;;;21.90;20.57;;;;;;;;;;5096307;28;20450;-96
2021/07/24 00:28:44;;;;;;;23.87;22.47;;;;;;;;;;5078544;28;20435;-96
2021/07/24 00:31:12;;;;;;;22.03;20.57;;;;;;;;;;5096725;28;20442;-96
2021/07/24 00:33:39;;;;;;;22.23;20.87;;;;;;;;;;5062014;28;20420;-96
2021/07/24 00:36:06;;;;;;;22.73;21.23;;;;;;;;;;5095928;28;20463;-96
2021/07/24 00:38:35;;;;;;;22.87;21.57;;;;;;;;;;5095550;28;20433;-96
2021/07/24 00:41:05;;;;;;;23.60;21.50;;;;;;;;;;5095931;28;20844;-95
2021/07/24 00:43:35;;;;;;;23.97;22.33;;;;;;;;;;5095525;28;20420;-96
2021/07/24 00:46:04;;;;;;;22.40;21.00;;;;;;;;;;5095576;28;20418;-96
2021/07/24 00:48:33;;;;;;;22.50;21.20;;;;;;;;;;5095609;28;20511;-96
2021/07/24 00:51:00;;;;;;;22.53;21.13;;;;;;;;;;5095309;28;20486;-96
2021/07/24 00:53:34;;;;;;;23.87;22.27;;;;;;;;;;5096519;28;20432;-96
2021/07/24 00:56:04;;;;;;;22.70;21.23;;;;;;;;;;5095453;28;20528;-96
2021/07/24 00:58:32;;;;;;;23.03;21.63;;;;;;;;;;5095241;28;20524;-96
2021/07/24 01:01:00;;;;;;;23.00;21.47;;;;;;;;;;5095458;28;20454;-96
2021/07/24 01:03:28;;;;;;;22.90;21.50;;;;;;;;;;5095494;28;20441;-96
2021/07/24 01:05:56;;;;;;;22.90;21.40;;;;;;;;;;5095434;28;20450;-96
2021/07/24 01:08:24;;;;;;;23.30;21.73;;;;;;;;;;5095236;28;20432;-96
2021/07/24 01:10:52;;;;;;;22.00;20.70;;;;;;;;;;5095282;28;20462;-95
2021/07/24 01:13:21;;;;;;;22.53;21.23;;;;;;;;;;5095289;28;20405;-95
2021/07/24 01:15:50;;;;;;;23.17;21.50;;;;;;;;;;5095620;28;20425;-96
2021/07/24 01:18:18;;;;;;;23.77;22.17;;;;;;;;;;5096002;28;20453;-95
2021/07/24 01:20:45;;;;;;;23.67;22.03;;;;;;;;;;5095275;28;20424;-95
2021/07/24 01:23:17;;;;;;;23.27;21.87;;;;;;;;;;5077092;28;20470;-96
2021/07/24 01:25:45;;;;;;;23.03;21.43;;;;;;;;;;5094770;28;20480;-96
2021/07/24 01:28:13;;;;;;;25.17;23.07;;;;;;;;;;5095078;28;20447;-96
2021/07/24 01:30:42;;;;;;;23.93;22.20;;;;;;;;;;5094587;28;20467;-96
2021/07/24 01:33:10;;;;;;;22.97;21.47;;;;;;;;;;5077157;28;20412;-96
2021/07/24 01:35:37;;;;;;;22.20;20.83;;;;;;;;;;5076638;28;20420;-96
2021/07/24 01:38:08;;;;;;;22.70;21.23;;;;;;;;;;5095198;28;20443;-96
2021/07/24 01:40:37;;;;;;;22.40;21.10;;;;;;;;;;5095231;28;20451;-96
2021/07/24 01:43:04;;;;;;;22.90;21.50;;;;;;;;;;5096242;28;20441;-95
2021/07/24 01:45:33;;;;;;;22.83;21.43;;;;;;;;;;5077057;28;20509;-96
2021/07/24 01:48:03;;;;;;;22.30;20.93;;;;;;;;;;5094670;28;20416;-96
2021/07/24 01:53:15;;;;;;;21.90;20.50;;;;;;;;;;5094503;28;20410;-96
2021/07/24 01:55:47;;;;;;;22.37;20.97;;;;;;;;;;5094292;28;20411;-96
2021/07/24 01:58:16;;;;;;;22.47;20.70;;;;;;;;;;5094693;28;20467;-96
2021/07/24 02:00:45;;;;;;;23.70;22.10;;;;;;;;;;5094707;28;20446;-96
2021/07/24 02:03:15;;;;;;;22.67;21.07;;;;;;;;;;5077064;28;20511;-96
2021/07/24 02:05:46;;;;;;;22.87;21.37;;;;;;;;;;5094057;28;20793;-96
2021/07/24 02:08:14;;;;;;;22.50;21.10;;;;;;;;;;5094379;28;20882;-96
2021/07/24 02:10:42;;;;;;;22.57;21.10;;;;;;;;;;5094455;28;20457;-95
2021/07/24 02:13:11;;;;;;;23.37;21.73;;;;;;;;;;5076619;28;20425;-95
2021/07/24 02:15:39;;;;;;;22.20;20.80;;;;;;;;;;5094623;28;20423;-96
2021/07/24 02:18:06;;;;;;;21.43;20.23;;;;;;;;;;5076594;28;20416;-96
2021/07/24 02:20:34;;;;;;;22.00;20.70;;;;;;;;;;5094206;28;20501;-96
2021/07/24 02:23:02;;;;;;;23.00;21.40;;;;;;;;;;5076671;28;20420;-96
2021/07/24 02:25:30;;;;;;;22.43;21.03;;;;;;;;;;5076398;28;20915;-96
2021/07/24 02:27:57;;;;;;;22.27;20.77;;;;;;;;;;5094656;28;20430;-96
2021/07/24 02:30:26;;;;;;;22.57;21.17;;;;;;;;;;5076270;28;20889;-96
2021/07/24 02:32:53;;;;;;;22.70;21.40;;;;;;;;;;5076275;28;20849;-96
2021/07/24 02:35:21;;;;;;;22.07;20.70;;;;;;;;;;5076828;28;20468;-96
2021/07/24 02:37:48;;;;;;;23.33;21.93;;;;;;;;;;5080048;28;20475;-96
2021/07/24 02:40:16;;;;;;;23.83;22.23;;;;;;;;;;5097889;28;20407;-96
2021/07/24 02:42:44;;;;;;;22.30;20.90;;;;;;;;;;5097905;28;20890;-96
2021/07/24 02:45:12;;;;;;;22.67;21.27;;;;;;;;;;5098231;28;20417;-96
2021/07/24 02:47:41;;;;;;;22.83;21.40;;;;;;;;;;5080867;28;20457;-96
2021/07/24 02:50:09;;;;;;;22.63;21.30;;;;;;;;;;5097873;28;20466;-96
2021/07/24 02:52:36;;;;;;;22.43;21.00;;;;;;;;;;5097977;28;20408;-96
2021/07/24 02:55:04;;;;;;;23.10;21.40;;;;;;;;;;5098338;28;20424;-96
2021/07/24 02:57:31;;;;;;;23.20;21.47;;;;;;;;;;5097338;28;20439;-96
2021/07/24 02:59:58;;;;;;;23.60;21.80;;;;;;;;;;5097479;28;20460;-96
2021/07/24 03:02:26;;;;;;;22.70;21.37;;;;;;;;;;5098078;28;20405;-96
2021/07/24 03:04:54;;;;;;;23.30;21.70;;;;;;;;;;5097775;28;20770;-96
2021/07/24 03:07:22;;;;;;;21.90;20.23;;;;;;;;;;5097906;28;20438;-96
2021/07/24 03:09:49;;;;;;;23.37;21.97;;;;;;;;;;5097332;28;20426;-96
2021/07/24 03:12:18;;;;;;;22.53;21.13;;;;;;;;;;5097569;28;20424;-96
2021/07/24 03:14:45;;;;;;;22.77;21.40;;;;;;;;;;5097208;28;20421;-96
2021/07/24 03:17:12;;;;;;;22.40;21.10;;;;;;;;;;5097273;28;20412;-96
2021/07/24 03:19:40;;;;;;;22.37;21.07;;;;;;;;;;5097521;28;20420;-96
2021/07/24 03:22:08;;;;;;;23.20;21.80;;;;;;;;;;5079543;28;20466;-96
2021/07/24 03:24:36;;;;;;;22.10;20.80;;;;;;;;;;5097350;28;20419;-96
2021/07/24 03:27:03;;;;;;;22.90;21.40;;;;;;;;;;5097477;28;20541;-96
2021/07/24 03:29:31;;;;;;;22.90;21.30;;;;;;;;;;5097222;28;20436;-96
2021/07/24 03:31:58;;;;;;;22.73;21.43;;;;;;;;;;5097411;28;20493;-96
2021/07/24 03:34:25;;;;;;;22.07;20.67;;;;;;;;;;5079472;28;20424;-96
2021/07/24 03:36:53;;;;;;;22.30;21.00;;;;;;;;;;5097688;28;20453;-95
2021/07/24 03:39:22;;;;;;;22.83;21.40;;;;;;;;;;5096842;28;20451;-96
2021/07/24 03:41:49;;;;;;;22.77;21.03;;;;;;;;;;5097223;28;20452;-96
2021/07/24 03:44:17;;;;;;;24.53;22.83;;;;;;;;;;5096988;28;20417;-96
2021/07/24 03:46:44;;;;;;;23.23;21.17;;;;;;;;;;5078982;28;20413;-96
2021/07/24 03:49:11;;;;;;;23.57;21.97;;;;;;;;;;5097786;28;20889;-96
2021/07/24 03:51:40;;;;;;;21.80;20.33;;;;;;;;;;5096671;28;20454;-96
2021/07/24 03:54:07;;;;;;;21.23;19.93;;;;;;;;;;5096996;28;20458;-96
2021/07/24 03:56:36;;;;;;;23.30;21.70;;;;;;;;;;5078431;28;20414;-96
2021/07/24 03:59:03;;;;;;;22.60;21.00;;;;;;;;;;5079153;28;20447;-96
2021/07/24 04:01:31;;;;;;;22.20;20.90;;;;;;;;;;5096827;28;20425;-90
2021/07/24 04:03:58;;;;;;;22.97;21.50;;;;;;;;;;5096666;28;20417;-90
2021/07/24 04:06:27;;;;;;;23.37;21.20;;;;;;;;;;5096793;28;20874;-93
2021/07/24 04:08:54;;;;;;;23.53;22.00;;;;;;;;;;5097552;28;20457;-96
2021/07/24 04:11:22;;;;;;;23.63;22.13;;;;;;;;;;5096410;28;20451;-96
2021/07/24 04:13:51;;;;;;;21.43;20.03;;;;;;;;;;5096242;28;20415;-91
2021/07/24 04:16:19;;;;;;;22.23;20.73;;;;;;;;;;5096534;28;20837;-91
2021/07/24 04:18:46;;;;;;;21.87;20.47;;;;;;;;;;5097088;28;20466;-91
2021/07/24 04:21:14;;;;;;;23.27;21.83;;;;;;;;;;5078333;28;20467;-91
2021/07/24 04:23:41;;;;;;;23.27;21.63;;;;;;;;;;5096167;28;20463;-91
2021/07/24 04:26:09;;;;;;;23.10;21.60;;;;;;;;;;5095808;28;20827;-90
2021/07/24 04:28:36;;;;;;;23.87;22.20;;;;;;;;;;5096131;28;20412;-91
2021/07/24 04:31:05;;;;;;;23.00;21.50;;;;;;;;;;5077998;28;20466;-91
2021/07/24 04:33:33;;;;;;;22.93;21.33;;;;;;;;;;5095991;28;20787;-91
2021/07/24 04:36:00;;;;;;;23.53;21.87;;;;;;;;;;5077746;28;20872;-90
2021/07/24 04:38:27;;;;;;;23.73;21.87;;;;;;;;;;5095975;28;20456;-91
2021/07/24 04:40:55;;;;;;;24.00;22.60;;;;;;;;;;5077930;28;20827;-91
2021/07/24 04:43:22;;;;;;;24.33;22.83;;;;;;;;;;5095851;28;20728;-90
2021/07/24 04:45:50;;;;;;;23.00;21.53;;;;;;;;;;5095920;28;20405;-90
2021/07/24 04:48:18;;;;;;;24.53;22.87;;;;;;;;;;5096358;28;20413;-91
2021/07/24 04:50:47;;;;;;;24.63;23.03;;;;;;;;;;5095643;28;20460;-90
2021/07/24 04:53:16;;;;;;;25.30;23.70;;;;;;;;;;5077720;28;20417;-91
2021/07/24 04:55:44;;;;;;;25.17;23.67;;;;;;;;;;5095448;28;20412;-91
2021/07/24 04:58:11;;;;;;;24.73;23.20;;;;;;;;;;5094949;28;20446;-90
2021/07/24 05:00:39;;;;;;;23.80;22.50;;;;;;;;;;5095489;28;20420;-90
2021/07/24 05:03:07;;;;;;;23.77;22.30;;;;;;;;;;5095154;28;20438;-90
2021/07/24 05:05:37;;;;;;;23.40;21.77;;;;;;;;;;5095529;28;20446;-90
2021/07/24 05:08:05;;;;;;;23.30;21.90;;;;;;;;;;5095562;28;20440;-90
2021/07/24 05:10:33;;;;;;;23.00;21.23;;;;;;;;;;5094946;28;20485;-90
2021/07/24 05:13:00;;;;;;;25.07;23.47;;;;;;;;;;5077458;28;20448;-90
2021/07/24 05:15:27;;;;;;;24.27;22.63;;;;;;;;;;5094922;28;20446;-90
2021/07/24 05:17:55;;;;;;;24.40;22.90;;;;;;;;;;5077207;28;20939;-90
2021/07/24 05:20:24;;;;;;;24.20;22.70;;;;;;;;;;5095454;28;20495;-90
2021/07/24 05:22:53;;;;;;;24.70;23.00;;;;;;;;;;5094893;28;20439;-91
2021/07/24 05:25:20;;;;;;;23.97;22.57;;;;;;;;;;5094889;28;20437;-90
2021/07/24 05:27:48;;;;;;;22.53;21.20;;;;;;;;;;5095244;28;20421;-91
2021/07/24 05:30:15;;;;;;;23.57;22.07;;;;;;;;;;5094806;28;20420;-91
2021/07/24 05:32:43;;;;;;;23.90;22.40;;;;;;;;;;5094885;28;20478;-90
2021/07/24 05:35:10;;;;;;;22.97;21.63;;;;;;;;;;5094699;28;20433;-91
2021/07/24 05:37:38;;;;;;;24.00;22.40;;;;;;;;;;5094419;28;20489;-90
2021/07/24 05:40:08;;;;;;;22.83;21.50;;;;;;;;;;5094611;28;20420;-91
2021/07/24 05:42:35;;;;;;;24.50;22.90;;;;;;;;;;5094903;28;20940;-91
2021/07/24 05:45:03;;;;;;;23.60;22.30;;;;;;;;;;5094545;28;20930;-90
2021/07/24 05:47:31;;;;;;;24.33;22.63;;;;;;;;;;5094984;28;20780;-90
2021/07/24 05:49:59;;;;;;;25.37;23.30;;;;;;;;;;5095143;28;20474;-91
2021/07/24 05:52:26;;;;;;;23.70;22.20;;;;;;;;;;5094546;28;20490;-90
2021/07/24 05:54:53;;;;;;;24.50;22.80;;;;;;;;;;5094623;28;20439;-90
2021/07/24 05:57:22;;;;;;;23.73;22.33;;;;;;;;;;5076236;28;20440;-91
2021/07/24 05:59:50;;;;;;;23.60;21.93;;;;;;;;;;5094684;28;20432;-91
2021/07/24 06:02:17;;;;;;;24.17;22.53;;;;;;;;;;5076659;28;20511;-91
2021/07/24 06:04:45;;;;;;;24.87;23.20;;;;;;;;;;5095450;28;20420;-91
2021/07/24 06:07:12;;;;;;;24.37;22.90;;;;;;;;;;5076703;28;20420;-91
2021/07/24 06:09:40;;;;;;;24.47;22.93;;;;;;;;;;5095010;28;20945;-91
2021/07/24 06:12:09;;;;;;;24.13;22.60;;;;;;;;;;5097401;28;20501;-91
2021/07/24 06:14:38;;;;;;;24.33;22.73;;;;;;;;;;5099091;28;20449;-90
2021/07/24 06:17:05;;;;;;;24.20;22.60;;;;;;;;;;5098288;28;20432;-91
2021/07/24 06:19:33;;;;;;;23.93;22.17;;;;;;;;;;5098709;28;20426;-91
2021/07/24 06:22:00;;;;;;;23.00;21.50;;;;;;;;;;5098390;28;20435;-90
2021/07/24 06:24:27;;;;;;;22.90;21.50;;;;;;;;;;5098414;28;20457;-90
2021/07/24 06:26:55;;;;;;;24.00;22.50;;;;;;;;;;5098151;28;20465;-91
2021/07/24 06:29:22;;;;;;;23.10;21.60;;;;;;;;;;5098430;28;20820;-90
2021/07/24 06:31:51;;;;;;;23.73;22.20;;;;;;;;;;5097961;28;20482;-91
2021/07/24 06:34:18;;;;;;;23.60;22.10;;;;;;;;;;5098747;28;20435;-90
2021/07/24 06:36:46;;;;;;;23.57;22.07;;;;;;;;;;5098258;28;20485;-91
2021/07/24 06:39:14;;;;;;;23.50;22.10;;;;;;;;;;5098283;28;20416;-91
2021/07/24 06:41:42;;;;;;;24.67;23.00;;;;;;;;;;5080167;28;20474;-90
2021/07/24 06:44:09;;;;;;;24.67;23.10;;;;;;;;;;5098706;28;20428;-91
2021/07/24 06:46:37;;;;;;;23.47;22.07;;;;;;;;;;5097752;28;20442;-90
2021/07/24 06:49:06;;;;;;;23.70;22.20;;;;;;;;;;5098778;28;20434;-90
2021/07/24 06:51:33;;;;;;;24.37;22.77;;;;;;;;;;5097490;28;20477;-90
2021/07/24 06:54:00;;;;;;;23.10;21.70;;;;;;;;;;5097595;28;20461;-90
2021/07/24 06:56:28;;;;;;;25.50;23.67;;;;;;;;;;5097827;28;20824;-90
2021/07/24 06:58:55;;;;;;;25.07;23.10;;;;;;;;;;5097891;28;20405;-90
2021/07/24 07:01:22;;;;;;;24.10;22.40;;;;;;;;;;5097786;28;20525;-91
2021/07/24 07:03:50;;;;;;;24.90;23.20;;;;;;;;;;5098380;28;20429;-90
2021/07/24 07:06:18;;;;;;;24.33;22.63;;;;;;;;;;5097476;28;20891;-91
2021/07/24 07:08:46;;;;;;;24.00;22.50;;;;;;;;;;5097509;28;20418;-90
2021/07/24 07:11:14;;;;;;;25.00;23.10;;;;;;;;;;5079614;28;20445;-90
2021/07/24 07:13:41;;;;;;;23.97;22.30;;;;;;;;;;5097698;28;20444;-90
2021/07/24 07:16:09;;;;;;;24.30;22.80;;;;;;;;;;5097185;28;20900;-90
2021/07/24 07:18:37;;;;;;;23.93;22.47;;;;;;;;;;5097243;28;20434;-90
2021/07/24 07:21:05;;;;;;;24.17;22.67;;;;;;;;;;5097133;28;20406;-90
2021/07/24 07:23:34;;;;;;;24.13;22.60;;;;;;;;;;5080263;28;20439;-90
2021/07/24 07:26:01;;;;;;;23.87;22.37;;;;;;;;;;5079319;28;20501;-91
2021/07/24 07:28:29;;;;;;;24.20;22.50;;;;;;;;;;5097293;28;20409;-90
2021/07/24 07:30:56;;;;;;;24.30;22.80;;;;;;;;;;5097282;28;20441;-88
2021/07/24 07:33:24;;;;;;;25.93;24.07;;;;;;;;;;5079080;28;20800;-88
2021/07/24 07:35:51;;;;;;;26.37;24.67;;;;;;;;;;5096902;28;20899;-88
2021/07/24 07:38:18;;;;;;;25.07;23.40;;;;;;;;;;5097001;28;20488;-88
2021/07/24 07:40:47;;;;;;;24.57;22.67;;;;;;;;;;5097100;28;20418;-88
2021/07/24 07:43:16;;;;;;;25.00;23.47;;;;;;;;;;5097566;28;20431;-88
2021/07/24 07:45:43;;;;;;;26.03;24.40;;;;;;;;;;5096902;28;20467;-89
2021/07/24 07:48:11;;;;;;;26.23;24.40;;;;;;;;;;5097371;28;20775;-88
2021/07/24 07:50:38;;;;;;;25.17;23.53;;;;;;;;;;5096433;28;20421;-89
2021/07/24 07:53:06;;;;;;;24.93;23.30;;;;;;;;;;5096381;28;20465;-88
2021/07/24 07:55:33;;;;;;;26.40;24.70;;;;;;;;;;5096341;28;20434;-88
2021/07/24 07:58:02;;;;;;;25.30;23.80;;;;;;;;;;5096554;28;20923;-88
2021/07/24 08:00:29;;;;;;;25.60;23.90;;;;;;;;;;5096359;28;20450;-86
2021/07/24 08:02:57;;;;;;;25.07;23.43;;;;;;;;;;5096464;28;20432;-86
2021/07/24 08:05:24;;;;;;;25.00;23.00;;;;;;;;;;5096779;28;20993;-86
2021/07/24 08:07:51;;;;;;;24.83;23.00;;;;;;;;;;5096172;28;20438;-87
2021/07/24 08:10:20;;;;;;;26.87;25.17;;;;;;;;;;5096329;28;20406;-87
2021/07/24 08:12:47;;;;;;;27.90;25.90;;;;;;;;;;5096218;28;20487;-87
2021/07/24 08:15:16;;;;;;;28.47;26.40;;;;;;;;;;5096341;28;20778;-86
2021/07/24 08:17:43;;;;;;;26.47;24.67;;;;;;;;;;5096723;28;20427;-86
2021/07/24 08:20:11;;;;;;;26.70;25.00;;;;;;;;;;5096075;28;20797;-87
2021/07/24 08:22:39;;;;;;;25.67;23.83;;;;;;;;;;5096556;28;20475;-87
2021/07/24 08:25:07;;;;;;;27.03;25.30;;;;;;;;;;5096055;28;20448;-87
2021/07/24 08:27:34;;;;;;;26.43;24.67;;;;;;;;;;5095665;28;20421;-86
2021/07/24 08:30:02;;;;;;;27.67;25.77;;;;;;;;;;5096276;28;20430;-86
2021/07/24 08:32:31;;;;;;;27.83;26.00;;;;;;;;;;5095595;28;20447;-86
2021/07/24 08:34:59;;;;;;;27.30;25.23;;;;;;;;;;5077181;28;20469;-86
2021/07/24 08:37:26;;;;;;;27.63;25.73;;;;;;;;;;5077455;28;20467;-87
2021/07/24 08:39:54;;;;;;;27.27;25.57;;;;;;;;;;5095968;28;20422;-86
2021/07/24 08:42:31;;;;;;;27.37;25.27;;;;;;;;;;5095937;28;20435;-86
2021/07/24 08:45:00;;;;;;;27.37;25.30;;;;;;;;;;5095434;28;20407;-87
2021/07/24 08:47:28;;;;;;;27.57;25.70;;;;;;;;;;5095649;28;21021;-87
2021/07/24 08:49:59;;;;;;;26.27;24.57;;;;;;;;;;5096225;28;20937;-87
2021/07/24 08:52:28;;;;;;;27.50;25.80;;;;;;;;;;5077437;28;20570;-87
2021/07/24 08:54:55;;;;;;;29.00;27.13;;;;;;;;;;5095126;28;20416;-87
2021/07/24 08:57:27;;;;;;;25.67;24.07;;;;;;;;;;5096155;28;20490;-86
2021/07/24 08:59:56;;;;;;;27.50;25.70;;;;;;;;;;5095108;28;20467;-87
2021/07/24 09:02:27;;;;;;;26.67;24.90;;;;;;;;;;5095161;28;20463;-86
2021/07/24 09:04:55;;;;;;;27.40;25.33;;;;;;;;;;5094919;28;20429;-86
2021/07/24 09:07:25;;;;;;;26.73;25.03;;;;;;;;;;5095587;28;20415;-87
2021/07/24 09:09:53;;;;;;;28.10;25.90;;;;;;;;;;5077050;28;20445;-86
2021/07/24 09:12:21;;;;;;;25.40;23.80;;;;;;;;;;5094784;28;20554;-87
2021/07/24 09:14:48;;;;;;;27.97;26.10;;;;;;;;;;5094646;28;20456;-87
2021/07/24 09:17:20;;;;;;;27.93;25.97;;;;;;;;;;5095087;28;20440;-87
2021/07/24 09:19:47;;;;;;;28.67;26.57;;;;;;;;;;5094901;28;20428;-86
2021/07/24 09:22:27;;;;;;;27.53;25.73;;;;;;;;;;5094887;28;20907;-87
2021/07/24 09:25:05;;;;;;;27.57;25.57;;;;;;;;;;5076632;28;20543;-86
2021/07/24 09:27:33;;;;;;;28.40;26.50;;;;;;;;;;5094762;28;20412;-87
2021/07/24 09:30:01;;;;;;;27.20;25.13;;;;;;;;;;5094187;28;20821;-86
2021/07/24 09:32:29;;;;;;;28.63;26.23;;;;;;;;;;5094361;28;20451;-87
2021/07/24 09:34:56;;;;;;;28.20;25.77;;;;;;;;;;5094368;28;20490;-86
2021/07/24 09:37:28;;;;;;;27.10;25.33;;;;;;;;;;5094498;28;20454;-88
2021/07/24 09:39:56;;;;;;;28.00;26.10;;;;;;;;;;5094307;28;20485;-87
2021/07/24 09:42:24;;;;;;;28.50;26.70;;;;;;;;;;5094400;28;20426;-87
2021/07/24 09:45:06;;;;;;;29.97;27.97;;;;;;;;;;5094039;28;20527;-87
2021/07/24 09:47:34;;;;;;;29.00;27.00;;;;;;;;;;5094262;28;20408;-87
2021/07/24 09:50:11;;;;;;;28.70;26.60;;;;;;;;;;5094291;28;20423;-87
2021/07/24 09:52:53;;;;;;;27.80;25.80;;;;;;;;;;5094656;28;20454;-87
2021/07/24 09:55:23;;;;;;;28.93;26.30;;;;;;;;;;5090963;28;20928;-87
2021/07/24 09:57:52;;;;;;;26.90;25.07;;;;;;;;;;5094507;28;20522;-87
2021/07/24 10:00:26;;;;;;;29.67;27.57;;;;;;;;;;5094205;28;20432;-88
2021/07/24 10:03:03;;;;;;;28.17;26.27;;;;;;;;;;5094091;28;20435;-87
2021/07/24 10:05:35;;;;;;;30.33;28.17;;;;;;;;;;5094132;28;20444;-87
2021/07/24 10:08:04;;;;;;;29.00;26.90;;;;;;;;;;5093732;28;20517;-87
2021/07/24 10:10:34;;;;;;;27.90;26.10;;;;;;;;;;5094575;28;20444;-87
2021/07/24 10:13:03;;;;;;;30.87;28.70;;;;;;;;;;5093980;28;21060;-87
2021/07/24 10:15:31;;;;;;;27.57;25.60;;;;;;;;;;5093960;28;20494;-87
2021/07/24 10:17:59;;;;;;;29.77;27.57;;;;;;;;;;5094916;28;20529;-87
2021/07/24 10:20:26;;;;;;;30.60;28.03;;;;;;;;;;5094177;28;20440;-87
2021/07/24 10:22:53;;;;;;;29.13;26.90;;;;;;;;;;5094002;28;20436;-87
2021/07/24 10:25:21;;;;;;;29.40;27.40;;;;;;;;;;5094227;28;20423;-87
2021/07/24 10:27:51;;;;;;;29.53;27.53;;;;;;;;;;5094350;28;20480;-87
2021/07/24 10:30:26;;;;;;;29.80;27.67;;;;;;;;;;5093960;28;20418;-87
2021/07/24 10:32:54;;;;;;;29.77;27.67;;;;;;;;;;5094092;28;20479;-87
2021/07/24 10:35:36;;;;;;;28.50;26.50;;;;;;;;;;5093949;28;20426;-87
2021/07/24 10:38:25;;;;;;;30.57;28.57;;;;;;;;;;5094206;28;20432;-87
2021/07/24 10:40:52;;;;;;;31.87;29.47;;;;;;;;;;5093853;28;20435;-87
2021/07/24 10:43:35;;;;;;;30.50;28.50;;;;;;;;;;5093915;28;20416;-87
2021/07/24 10:46:04;;;;;;;32.97;30.70;;;;;;;;;;5075331;28;20420;-87
2021/07/24 10:48:44;;;;;;;32.13;29.93;;;;;;;;;;5094408;28;20408;-87
2021/07/24 10:51:18;;;;;;;31.87;29.30;;;;;;;;;;5094285;28;20453;-87
2021/07/24 10:54:06;;;;;;;29.57;27.47;;;;;;;;;;5094438;28;20511;-87
2021/07/24 10:56:36;;;;;;;32.00;29.53;;;;;;;;;;5094308;28;20932;-87
2021/07/24 10:59:28;;;;;;;30.17;28.27;;;;;;;;;;5097424;28;20485;-87
2021/07/24 11:01:57;;;;;;;30.50;28.40;;;;;;;;;;5065458;28;20436;-87
2021/07/24 11:04:51;;;;;;;30.60;28.50;;;;;;;;;;5097789;28;20411;-87
2021/07/24 11:07:36;;;;;;;30.50;28.40;;;;;;;;;;5087755;28;20456;-87
2021/07/24 11:10:07;;;;;;;30.93;28.83;;;;;;;;;;5097649;28;20436;-87
2021/07/24 11:12:36;;;;;;;32.07;29.70;;;;;;;;;;5097237;28;20476;-87
2021/07/24 11:15:03;;;;;;;29.47;27.47;;;;;;;;;;5097344;28;20445;-87
2021/07/24 11:17:32;;;;;;;30.60;28.53;;;;;;;;;;5079563;28;20412;-87
2021/07/24 11:20:36;;;;;;;30.87;28.77;;;;;;;;;;5097406;28;20421;-87
2021/07/24 11:23:16;;;;;;;30.67;28.57;;;;;;;;;;5097391;28;20446;-87
2021/07/24 11:25:46;;;;;;;31.87;29.63;;;;;;;;;;5096996;28;20436;-87
2021/07/24 11:28:17;;;;;;;31.67;29.40;;;;;;;;;;5097215;28;20934;-88
2021/07/24 11:30:45;;;;;;;33.03;30.73;;;;;;;;;;5097636;28;20420;-87
2021/07/24 11:33:19;;;;;;;32.07;29.87;;;;;;;;;;5097162;28;20484;-87
2021/07/24 11:35:49;;;;;;;29.50;27.30;;;;;;;;;;5096585;28;20917;-87
2021/07/24 11:38:24;;;;;;;32.70;30.33;;;;;;;;;;5097241;28;20520;-87
2021/07/24 11:41:05;;;;;;;31.30;29.10;;;;;;;;;;5096768;28;20443;-87
2021/07/24 11:43:33;;;;;;;31.83;29.63;;;;;;;;;;5096967;28;20811;-87
2021/07/24 11:46:02;;;;;;;30.07;28.17;;;;;;;;;;5096611;28;20887;-88
2021/07/24 11:48:31;;;;;;;32.23;29.93;;;;;;;;;;5096852;28;20430;-87
2021/07/24 11:51:02;;;;;;;30.13;28.03;;;;;;;;;;5096892;28;20912;-87
2021/07/24 11:53:29;;;;;;;31.27;29.10;;;;;;;;;;5096670;28;20898;-87
2021/07/24 11:55:57;;;;;;;31.83;29.63;;;;;;;;;;5096459;28;20440;-87
2021/07/24 11:58:24;;;;;;;31.50;29.40;;;;;;;;;;5096681;28;20775;-87
2021/07/24 12:00:53;;;;;;;30.83;28.47;;;;;;;;;;5096420;28;20397;-87
2021/07/24 12:03:21;;;;;;;30.50;28.43;;;;;;;;;;5096344;28;20433;-87
2021/07/24 12:05:51;;;;;;;30.87;28.77;;;;;;;;;;5096438;28;20438;-87
2021/07/24 12:08:19;;;;;;;31.30;29.20;;;;;;;;;;5095162;28;20797;-87
2021/07/24 12:10:48;;;;;;;30.70;28.60;;;;;;;;;;5078339;28;20436;-87
2021/07/24 12:13:21;;;;;;;30.60;28.50;;;;;;;;;;5095919;28;20534;-87
2021/07/24 12:16:03;;;;;;;32.37;30.17;;;;;;;;;;5096306;28;20430;-87
2021/07/24 12:18:36;;;;;;;29.87;27.70;;;;;;;;;;5096718;28;20825;-87
2021/07/24 12:21:12;;;;;;;31.60;29.30;;;;;;;;;;5096915;28;20426;-87
2021/07/24 12:23:44;;;;;;;31.37;29.17;;;;;;;;;;5078159;28;20509;-87
2021/07/24 12:26:12;;;;;;;29.97;27.87;;;;;;;;;;5095618;28;20442;-87
2021/07/24 12:28:40;;;;;;;32.03;29.83;;;;;;;;;;5096182;28;20913;-87
2021/07/24 12:31:17;;;;;;;32.00;29.33;;;;;;;;;;5078008;28;20504;-87
2021/07/24 12:33:45;;;;;;;31.00;28.70;;;;;;;;;;5077959;28;20521;-87
2021/07/24 12:36:14;;;;;;;30.57;28.47;;;;;;;;;;5095565;28;20481;-87
2021/07/24 12:38:42;;;;;;;31.70;29.40;;;;;;;;;;5095782;28;20459;-87
2021/07/24 12:41:09;;;;;;;31.07;28.90;;;;;;;;;;5077764;28;20933;-88
2021/07/24 12:43:39;;;;;;;32.67;30.37;;;;;;;;;;5095519;28;20485;-87
2021/07/24 12:46:16;;;;;;;31.97;29.70;;;;;;;;;;5095348;28;20413;-87
2021/07/24 12:48:44;;;;;;;31.63;29.30;;;;;;;;;;5095243;28;20426;-87
2021/07/24 12:51:12;;;;;;;32.23;29.60;;;;;;;;;;5095356;28;20439;-87
2021/07/24 12:53:41;;;;;;;32.17;29.97;;;;;;;;;;5095362;28;20566;-87
2021/07/24 12:56:09;;;;;;;30.97;28.83;;;;;;;;;;5094944;28;20875;-87
2021/07/24 12:58:38;;;;;;;32.00;29.70;;;;;;;;;;5095289;28;20451;-87
2021/07/24 13:01:09;;;;;;;30.63;28.53;;;;;;;;;;5095465;28;20457;-87
2021/07/24 13:03:37;;;;;;;32.17;29.97;;;;;;;;;;5095158;28;20817;-86
2021/07/24 13:06:04;;;;;;;30.37;28.17;;;;;;;;;;5095291;28;20439;-87
2021/07/24 13:08:31;;;;;;;32.60;30.20;;;;;;;;;;5095732;28;20417;-85
2021/07/24 13:11:00;;;;;;;31.40;29.07;;;;;;;;;;5095009;28;20419;-85
2021/07/24 13:13:28;;;;;;;31.97;29.60;;;;;;;;;;5094833;28;20468;-85
2021/07/24 13:15:55;;;;;;;31.80;29.50;;;;;;;;;;5095856;28;20412;-85
2021/07/24 13:18:22;;;;;;;29.70;27.80;;;;;;;;;;5095000;28;20941;-85
2021/07/24 13:20:49;;;;;;;33.40;30.83;;;;;;;;;;5094167;28;20440;-85
2021/07/24 13:23:17;;;;;;;32.47;30.27;;;;;;;;;;5095071;28;20485;-85
2021/07/24 13:25:51;;;;;;;31.33;28.80;;;;;;;;;;5094790;28;20809;-85
2021/07/24 13:28:19;;;;;;;32.20;29.80;;;;;;;;;;5095246;28;20463;-85
2021/07/24 13:30:46;;;;;;;31.37;29.17;;;;;;;;;;5094569;28;20814;-85
2021/07/24 13:33:15;;;;;;;30.70;28.53;;;;;;;;;;5076864;28;20508;-85
2021/07/24 13:35:43;;;;;;;31.97;29.77;;;;;;;;;;5094446;28;20405;-85
2021/07/24 13:38:10;;;;;;;30.70;28.50;;;;;;;;;;5095566;28;20429;-85
2021/07/24 13:40:38;;;;;;;31.53;29.23;;;;;;;;;;5094743;28;20413;-86
2021/07/24 13:43:05;;;;;;;32.30;30.00;;;;;;;;;;5094742;28;20409;-85
2021/07/24 13:45:35;;;;;;;33.13;30.67;;;;;;;;;;5076816;28;20417;-86
2021/07/24 13:48:03;;;;;;;32.23;30.00;;;;;;;;;;5094335;28;20444;-86
2021/07/24 13:50:30;;;;;;;32.10;29.90;;;;;;;;;;5094113;28;20949;-85
2021/07/24 13:52:57;;;;;;;32.90;30.50;;;;;;;;;;5094262;28;20414;-85
2021/07/24 13:55:25;;;;;;;32.63;30.30;;;;;;;;;;5094424;28;20409;-85
2021/07/24 13:57:52;;;;;;;31.87;29.70;;;;;;;;;;5094330;28;20453;-86
2021/07/24 14:00:20;;;;;;;32.50;30.30;;;;;;;;;;5094988;28;20445;-85
2021/07/24 14:02:48;;;;;;;32.83;30.40;;;;;;;;;;5095009;28;20432;-85
2021/07/24 14:05:16;;;;;;;33.67;31.10;;;;;;;;;;5076295;28;20430;-86
2021/07/24 14:07:43;;;;;;;32.00;29.47;;;;;;;;;;5094324;28;20429;-86
2021/07/24 14:10:11;;;;;;;33.67;31.23;;;;;;;;;;5094458;28;20442;-85
2021/07/24 14:12:39;;;;;;;32.20;30.00;;;;;;;;;;5076312;28;20895;-86
2021/07/24 14:15:07;;;;;;;32.20;29.90;;;;;;;;;;5093920;28;20480;-86
2021/07/24 14:17:34;;;;;;;33.20;30.73;;;;;;;;;;5094106;28;20450;-86
2021/07/24 14:20:04;;;;;;;32.00;29.60;;;;;;;;;;5094500;28;20439;-85
2021/07/24 14:22:31;;;;;;;32.70;30.40;;;;;;;;;;5076540;28;20513;-86
2021/07/24 14:24:59;;;;;;;31.70;29.67;;;;;;;;;;5094241;28;20409;-85
2021/07/24 14:27:26;;;;;;;31.93;29.80;;;;;;;;;;5094083;28;20438;-86
2021/07/24 14:29:53;;;;;;;32.70;30.60;;;;;;;;;;5094337;28;20441;-85